Track Григорьев Андрей

Time Latitude Longitude Accuracy (66% radius in meters) Altitude (meters) Speed (km/hour) Bearing (degrees) Battery (%) GPS flag
12:10:30 57.000172 39.407451 1.5 192.89999389648 1.1699999570847 354.88037109375 2 1 delete
12:10:27 57.000138 39.407451 1.5 192.69999694824 1.2200000286102 351.68884277344 2 1 delete
12:10:18 57.000042 39.407483 2 193.30000305176 0.9899999499321 345.1904296875 2 1 delete
12:10:05 56.999925 39.407529 9 190.5 1.1599999666214 357.98950195312 2 1 delete
12:00:00 56.993533 39.410812 1.5 197.89999389648 2.0499999523163 25.790405273438 2 1 delete
11:59:48 56.993426 39.410693 2 196.89999389648 1.4499999284744 23.076782226562 2 1 delete
11:59:42 56.993337 39.410621 3 195 1.7300000190735 16.836547851562 2 1 delete
11:59:31 56.993196 39.410586 9.5 203.19999694824 2.3799998760223 0.7525634765625 2 1 delete
11:49:24 56.989423 39.413605 1.5 180.39999389648 1.1699999570847 256.49780273438 5 1 delete
11:49:21 56.989426 39.413659 1.5 179.19999694824 1.0699999332428 259.8486328125 5 1 delete
11:49:12 56.989449 39.413844 2 178.19999694824 1.039999961853 253.41064453125 5 1 delete
11:48:59 56.989412 39.414016 9 181.10000610352 1.3700000047684 270.95031738281 5 1 delete
11:38:54 56.990484 39.425020 1.5 173.80000305176 0.69999998807907 268.61022949219 7 1 delete
11:38:51 56.990495 39.425061 1.5 173.69999694824 0.94999998807907 272.5048828125 7 1 delete
11:38:42 56.990505 39.425200 1.5 172.10000610352 0.93000000715256 266.03942871094 7 1 delete
11:38:33 56.990510 39.425387 2 171.89999389648 1.0599999427795 263.17199707031 7 1 delete
11:38:22 56.990436 39.425498 10.5 166.69999694824 1.0699999332428 284.92492675781 7 1 delete
11:28:20 56.993645 39.431647 1.5 181 1 250.87280273438 7 1 delete
11:28:17 56.993650 39.431693 1.5 180.10000610352 1.0299999713898 259.62890625 7 1 delete
11:28:05 56.993696 39.431922 1.5 179.60000610352 1.0799999237061 257.72827148438 7 1 delete
11:27:51 56.993753 39.432107 9.5 160.5 1.1000000238419 269.77478027344 7 1 delete
11:17:44 56.991555 39.441781 1.5 173 0.96999996900558 284.68322753906 8 1 delete
11:17:35 56.991530 39.441939 1.5 173.19999694824 1.1999999284744 288.35815429688 8 1 delete
11:17:26 56.991511 39.442109 1.5 172.89999389648 1.2200000286102 294.02160644531 8 1 delete
11:17:20 56.991482 39.442224 1.5 172.5 1.1999999284744 287.52868652344 8 1 delete
11:17:17 56.991471 39.442282 1.5 171.89999389648 1.3399999141693 293.32397460938 8 1 delete
11:17:05 56.991434 39.442499 2.5 172.5 1.1899999380112 291.40686035156 8 1 delete
11:16:55 56.991394 39.442707 8 168.69999694824 1.2699999809265 273.83972167969 8 1 delete
11:06:51 56.989355 39.453062 1.5 181.10000610352 1.1000000238419 339.8291015625 8 1 delete
11:06:45 56.989287 39.453102 2 181.10000610352 0.9099999666214 341.31225585938 8 1 delete
11:06:36 56.989172 39.453144 2.5 181.5 1.2200000286102 343.85009765625 8 1 delete
11:06:23 56.989063 39.453234 12 188.89999389648 1.1699999570847 311.81945800781 8 1 delete
10:56:18 56.983187 39.452871 1 177.30000305176 1.0699999332428 46.137084960938 8 1 delete
10:56:15 56.983160 39.452846 1 177.19999694824 1.1999999284744 43.137817382812 8 1 delete
10:56:09 56.983105 39.452762 1 176.80000305176 1.289999961853 42.522583007812 8 1 delete
10:56:00 56.983050 39.452626 1 175.19999694824 1.0699999332428 43.96728515625 8 1 delete
10:55:51 56.982974 39.452487 1 176.80000305176 1.1599999666214 42.890625 8 1 delete
10:55:42 56.982905 39.452376 1 177.30000305176 1.2099999189377 45.538330078125 8 1 delete
10:55:30 56.982831 39.452225 1 179 0.9899999499321 46.983032226562 8 1 delete
10:55:18 56.982773 39.452055 1 178.69999694824 1 57.233276367188 8 1 delete
10:55:09 56.982712 39.451916 1.5 178.39999389648 1.1599999666214 45.68115234375 8 1 delete
10:55:00 56.982643 39.451798 1.5 178.19999694824 1.1399999856949 44.862670898438 8 1 delete
10:54:48 56.982562 39.451652 1.5 177.10000610352 1.1999999284744 42.572021484375 8 1 delete
10:54:45 56.982541 39.451601 1.5 176.80000305176 1.0799999237061 42.028198242188 8 1 delete
10:54:39 56.982498 39.451532 1.5 178.30000305176 1.1000000238419 36.370239257812 8 1 delete
10:54:24 56.982413 39.451379 2.5 176 1.0099999904633 58.716430664062 8 1 delete
10:54:16 56.982396 39.451195 10 180.39999389648 1 34.69482421875 8 1 delete
10:44:09 56.977015 39.453652 1.5 179.60000610352 1.1999999284744 334.0283203125 8 1 delete
10:44:00 56.976926 39.453725 1.5 180.60000610352 1.2799999713898 341.48803710938 8 1 delete
10:43:57 56.976889 39.453741 1.5 180.60000610352 1.2999999523163 338.56567382812 8 1 delete